sensor_id;sensor_type;location;lat;lon;timestamp;P1;durP1;ratioP1;P2;durP2;ratioP2
17636;SDS011;8937;51.236;6.794;2023-05-21T00:01:49;4.80;;;4.30;;
17636;SDS011;8937;51.236;6.794;2023-05-21T00:10:11;6.27;;;4.30;;
17636;SDS011;8937;51.236;6.794;2023-05-21T00:18:33;5.17;;;4.67;;
17636;SDS011;8937;51.236;6.794;2023-05-21T00:26:55;6.63;;;4.10;;
17636;SDS011;8937;51.236;6.794;2023-05-21T00:35:17;5.13;;;4.17;;
17636;SDS011;8937;51.236;6.794;2023-05-21T00:43:39;3.97;;;3.67;;
17636;SDS011;8937;51.236;6.794;2023-05-21T00:52:01;5.00;;;4.10;;
17636;SDS011;8937;51.236;6.794;2023-05-21T01:00:23;6.50;;;4.40;;
17636;SDS011;8937;51.236;6.794;2023-05-21T01:08:45;5.57;;;4.73;;
17636;SDS011;8937;51.236;6.794;2023-05-21T01:17:08;6.20;;;5.57;;
17636;SDS011;8937;51.236;6.794;2023-05-21T01:25:31;8.70;;;5.73;;
17636;SDS011;8937;51.236;6.794;2023-05-21T01:33:53;5.70;;;5.10;;
17636;SDS011;8937;51.236;6.794;2023-05-21T01:42:17;6.93;;;5.03;;
17636;SDS011;8937;51.236;6.794;2023-05-21T01:50:39;4.97;;;4.40;;
17636;SDS011;8937;51.236;6.794;2023-05-21T01:59:03;4.83;;;4.33;;
17636;SDS011;8937;51.236;6.794;2023-05-21T02:07:24;4.93;;;3.67;;
17636;SDS011;8937;51.236;6.794;2023-05-21T02:15:49;6.37;;;4.23;;
17636;SDS011;8937;51.236;6.794;2023-05-21T02:24:13;4.13;;;3.77;;
17636;SDS011;8937;51.236;6.794;2023-05-21T02:32:36;4.40;;;3.63;;
17636;SDS011;8937;51.236;6.794;2023-05-21T02:40:58;7.50;;;3.60;;
17636;SDS011;8937;51.236;6.794;2023-05-21T02:49:21;3.77;;;3.47;;
17636;SDS011;8937;51.236;6.794;2023-05-21T02:57:42;3.27;;;3.00;;
17636;SDS011;8937;51.236;6.794;2023-05-21T03:06:05;4.83;;;3.60;;
17636;SDS011;8937;51.236;6.794;2023-05-21T03:14:29;3.60;;;3.30;;
17636;SDS011;8937;51.236;6.794;2023-05-21T03:22:52;3.57;;;3.13;;
17636;SDS011;8937;51.236;6.794;2023-05-21T03:31:14;3.87;;;3.47;;
17636;SDS011;8937;51.236;6.794;2023-05-21T03:39:37;4.53;;;3.23;;
17636;SDS011;8937;51.236;6.794;2023-05-21T03:47:58;5.00;;;3.10;;
17636;SDS011;8937;51.236;6.794;2023-05-21T03:56:22;3.47;;;3.17;;
17636;SDS011;8937;51.236;6.794;2023-05-21T04:04:43;3.33;;;3.03;;
17636;SDS011;8937;51.236;6.794;2023-05-21T04:13:06;3.70;;;3.43;;
17636;SDS011;8937;51.236;6.794;2023-05-21T04:21:28;3.60;;;3.30;;
17636;SDS011;8937;51.236;6.794;2023-05-21T04:29:52;3.43;;;3.17;;
17636;SDS011;8937;51.236;6.794;2023-05-21T04:38:14;3.27;;;3.03;;
17636;SDS011;8937;51.236;6.794;2023-05-21T04:46:39;4.20;;;3.80;;
17636;SDS011;8937;51.236;6.794;2023-05-21T04:55:01;3.70;;;3.40;;
17636;SDS011;8937;51.236;6.794;2023-05-21T05:03:24;3.60;;;3.30;;
17636;SDS011;8937;51.236;6.794;2023-05-21T05:11:45;3.73;;;3.43;;
17636;SDS011;8937;51.236;6.794;2023-05-21T05:20:09;3.80;;;3.50;;
17636;SDS011;8937;51.236;6.794;2023-05-21T05:28:30;4.17;;;3.77;;
17636;SDS011;8937;51.236;6.794;2023-05-21T05:36:53;3.67;;;3.23;;
17636;SDS011;8937;51.236;6.794;2023-05-21T05:45:16;4.17;;;3.83;;
17636;SDS011;8937;51.236;6.794;2023-05-21T05:53:39;4.57;;;4.03;;
17636;SDS011;8937;51.236;6.794;2023-05-21T06:02:00;4.93;;;3.90;;
17636;SDS011;8937;51.236;6.794;2023-05-21T06:10:23;3.70;;;3.40;;
17636;SDS011;8937;51.236;6.794;2023-05-21T06:18:44;4.60;;;3.83;;
17636;SDS011;8937;51.236;6.794;2023-05-21T06:27:07;4.67;;;4.27;;
17636;SDS011;8937;51.236;6.794;2023-05-21T06:35:28;4.37;;;3.97;;
17636;SDS011;8937;51.236;6.794;2023-05-21T06:43:51;5.07;;;4.00;;
17636;SDS011;8937;51.236;6.794;2023-05-21T06:52:13;4.23;;;3.83;;
17636;SDS011;8937;51.236;6.794;2023-05-21T07:00:36;4.90;;;4.40;;
17636;SDS011;8937;51.236;6.794;2023-05-21T07:08:57;5.20;;;4.70;;
17636;SDS011;8937;51.236;6.794;2023-05-21T07:17:20;5.30;;;4.80;;
17636;SDS011;8937;51.236;6.794;2023-05-21T07:25:42;5.10;;;4.60;;
17636;SDS011;8937;51.236;6.794;2023-05-21T07:34:05;5.27;;;4.77;;
17636;SDS011;8937;51.236;6.794;2023-05-21T07:42:26;10.37;;;4.63;;
17636;SDS011;8937;51.236;6.794;2023-05-21T07:50:49;5.90;;;4.40;;
17636;SDS011;8937;51.236;6.794;2023-05-21T07:59:12;5.30;;;4.80;;
17636;SDS011;8937;51.236;6.794;2023-05-21T08:07:35;5.23;;;4.77;;
17636;SDS011;8937;51.236;6.794;2023-05-21T08:15:56;4.87;;;4.47;;
17636;SDS011;8937;51.236;6.794;2023-05-21T08:24:19;5.90;;;5.40;;
17636;SDS011;8937;51.236;6.794;2023-05-21T08:32:40;5.28;;;4.65;;
17636;SDS011;8937;51.236;6.794;2023-05-21T08:41:03;6.30;;;5.70;;
17636;SDS011;8937;51.236;6.794;2023-05-21T08:49:25;5.57;;;5.07;;
17636;SDS011;8937;51.236;6.794;2023-05-21T08:57:48;7.07;;;6.05;;
17636;SDS011;8937;51.236;6.794;2023-05-21T09:06:10;5.35;;;4.85;;
17636;SDS011;8937;51.236;6.794;2023-05-21T09:14:34;6.65;;;5.95;;
17636;SDS011;8937;51.236;6.794;2023-05-21T09:22:57;6.22;;;5.63;;
17636;SDS011;8937;51.236;6.794;2023-05-21T09:31:23;6.70;;;5.90;;
17636;SDS011;8937;51.236;6.794;2023-05-21T09:39:46;9.35;;;6.25;;
17636;SDS011;8937;51.236;6.794;2023-05-21T09:48:08;7.82;;;7.03;;
17636;SDS011;8937;51.236;6.794;2023-05-21T09:56:30;10.43;;;8.70;;
17636;SDS011;8937;51.236;6.794;2023-05-21T10:04:53;7.63;;;6.82;;
17636;SDS011;8937;51.236;6.794;2023-05-21T10:13:17;7.20;;;6.28;;
17636;SDS011;8937;51.236;6.794;2023-05-21T10:21:40;6.60;;;6.00;;
17636;SDS011;8937;51.236;6.794;2023-05-21T10:30:03;6.78;;;6.07;;
17636;SDS011;8937;51.236;6.794;2023-05-21T10:38:26;8.00;;;6.80;;
17636;SDS011;8937;51.236;6.794;2023-05-21T10:55:31;8.68;;;6.38;;
17636;SDS011;8937;51.236;6.794;2023-05-21T11:03:53;9.10;;;7.18;;
17636;SDS011;8937;51.236;6.794;2023-05-21T11:12:16;7.45;;;6.60;;
17636;SDS011;8937;51.236;6.794;2023-05-21T11:20:38;8.82;;;7.93;;
17636;SDS011;8937;51.236;6.794;2023-05-21T11:29:07;8.50;;;7.60;;
17636;SDS011;8937;51.236;6.794;2023-05-21T11:37:29;9.05;;;7.03;;
17636;SDS011;8937;51.236;6.794;2023-05-21T11:45:53;12.05;;;9.23;;
17636;SDS011;8937;51.236;6.794;2023-05-21T11:54:15;7.80;;;7.05;;
17636;SDS011;8937;51.236;6.794;2023-05-21T12:02:42;9.77;;;8.00;;
17636;SDS011;8937;51.236;6.794;2023-05-21T12:11:03;7.10;;;6.40;;
17636;SDS011;8937;51.236;6.794;2023-05-21T12:19:26;6.93;;;6.25;;
17636;SDS011;8937;51.236;6.794;2023-05-21T12:27:48;9.70;;;7.65;;
17636;SDS011;8937;51.236;6.794;2023-05-21T12:36:21;10.32;;;6.82;;
17636;SDS011;8937;51.236;6.794;2023-05-21T12:44:43;7.07;;;6.38;;
17636;SDS011;8937;51.236;6.794;2023-05-21T12:53:07;12.10;;;7.85;;
17636;SDS011;8937;51.236;6.794;2023-05-21T13:01:29;7.32;;;6.63;;
17636;SDS011;8937;51.236;6.794;2023-05-21T13:09:52;6.78;;;6.15;;
17636;SDS011;8937;51.236;6.794;2023-05-21T13:18:13;7.50;;;6.50;;
17636;SDS011;8937;51.236;6.794;2023-05-21T13:26:36;6.35;;;5.72;;
17636;SDS011;8937;51.236;6.794;2023-05-21T13:34:58;6.57;;;5.90;;
17636;SDS011;8937;51.236;6.794;2023-05-21T13:43:21;7.10;;;6.00;;
17636;SDS011;8937;51.236;6.794;2023-05-21T13:51:42;6.18;;;5.53;;
17636;SDS011;8937;51.236;6.794;2023-05-21T14:00:06;8.43;;;7.60;;
17636;SDS011;8937;51.236;6.794;2023-05-21T14:08:31;7.20;;;6.50;;
17636;SDS011;8937;51.236;6.794;2023-05-21T14:16:54;7.22;;;6.45;;
17636;SDS011;8937;51.236;6.794;2023-05-21T14:25:15;7.68;;;6.82;;
17636;SDS011;8937;51.236;6.794;2023-05-21T14:33:38;6.93;;;6.32;;
17636;SDS011;8937;51.236;6.794;2023-05-21T14:42:01;6.57;;;6.00;;
17636;SDS011;8937;51.236;6.794;2023-05-21T14:50:24;7.10;;;6.40;;
17636;SDS011;8937;51.236;6.794;2023-05-21T14:58:46;7.78;;;6.72;;
17636;SDS011;8937;51.236;6.794;2023-05-21T15:07:09;7.45;;;6.68;;
17636;SDS011;8937;51.236;6.794;2023-05-21T15:15:31;7.70;;;6.95;;
17636;SDS011;8937;51.236;6.794;2023-05-21T15:23:54;9.45;;;6.28;;
17636;SDS011;8937;51.236;6.794;2023-05-21T15:32:15;7.05;;;6.35;;
17636;SDS011;8937;51.236;6.794;2023-05-21T15:40:39;7.50;;;6.80;;
17636;SDS011;8937;51.236;6.794;2023-05-21T15:49:01;7.60;;;6.80;;
17636;SDS011;8937;51.236;6.794;2023-05-21T15:57:24;6.55;;;5.95;;
17636;SDS011;8937;51.236;6.794;2023-05-21T16:05:45;7.25;;;6.45;;
17636;SDS011;8937;51.236;6.794;2023-05-21T16:14:08;6.97;;;5.97;;
17636;SDS011;8937;51.236;6.794;2023-05-21T16:22:30;6.28;;;5.68;;
17636;SDS011;8937;51.236;6.794;2023-05-21T16:30:53;6.97;;;6.28;;
17636;SDS011;8937;51.236;6.794;2023-05-21T16:39:15;8.05;;;6.47;;
17636;SDS011;8937;51.236;6.794;2023-05-21T16:47:38;6.72;;;5.85;;
17636;SDS011;8937;51.236;6.794;2023-05-21T16:55:59;6.38;;;5.78;;
17636;SDS011;8937;51.236;6.794;2023-05-21T17:04:25;7.22;;;6.53;;
17636;SDS011;8937;51.236;6.794;2023-05-21T17:12:47;7.63;;;6.85;;
17636;SDS011;8937;51.236;6.794;2023-05-21T17:21:09;7.32;;;6.57;;
17636;SDS011;8937;51.236;6.794;2023-05-21T17:29:31;5.72;;;5.18;;
17636;SDS011;8937;51.236;6.794;2023-05-21T17:37:54;6.35;;;5.75;;
17636;SDS011;8937;51.236;6.794;2023-05-21T17:46:15;6.85;;;5.22;;
17636;SDS011;8937;51.236;6.794;2023-05-21T17:54:38;7.72;;;6.32;;
17636;SDS011;8937;51.236;6.794;2023-05-21T18:03:00;10.85;;;6.45;;
17636;SDS011;8937;51.236;6.794;2023-05-21T18:11:23;8.77;;;7.70;;
17636;SDS011;8937;51.236;6.794;2023-05-21T18:19:45;14.13;;;8.00;;
17636;SDS011;8937;51.236;6.794;2023-05-21T18:28:08;9.15;;;6.75;;
17636;SDS011;8937;51.236;6.794;2023-05-21T18:36:29;7.72;;;6.95;;
17636;SDS011;8937;51.236;6.794;2023-05-21T18:45:00;13.82;;;7.40;;
17636;SDS011;8937;51.236;6.794;2023-05-21T18:53:25;9.13;;;8.23;;
17636;SDS011;8937;51.236;6.794;2023-05-21T19:01:48;9.90;;;7.35;;
17636;SDS011;8937;51.236;6.794;2023-05-21T19:10:09;8.90;;;8.00;;
17636;SDS011;8937;51.236;6.794;2023-05-21T19:18:32;8.95;;;7.85;;
17636;SDS011;8937;51.236;6.794;2023-05-21T19:26:54;8.82;;;7.80;;
17636;SDS011;8937;51.236;6.794;2023-05-21T19:35:17;11.35;;;8.73;;
17636;SDS011;8937;51.236;6.794;2023-05-21T19:43:38;11.63;;;9.85;;
17636;SDS011;8937;51.236;6.794;2023-05-21T19:52:01;13.05;;;10.18;;
17636;SDS011;8937;51.236;6.794;2023-05-21T20:00:22;10.82;;;9.18;;
17636;SDS011;8937;51.236;6.794;2023-05-21T20:08:46;11.30;;;9.38;;
17636;SDS011;8937;51.236;6.794;2023-05-21T20:17:08;14.85;;;12.85;;
17636;SDS011;8937;51.236;6.794;2023-05-21T20:25:31;18.48;;;13.38;;
17636;SDS011;8937;51.236;6.794;2023-05-21T20:33:53;19.15;;;14.20;;
17636;SDS011;8937;51.236;6.794;2023-05-21T20:42:15;25.63;;;14.48;;
17636;SDS011;8937;51.236;6.794;2023-05-21T20:50:38;15.60;;;12.50;;
17636;SDS011;8937;51.236;6.794;2023-05-21T20:59:02;20.63;;;12.65;;
17636;SDS011;8937;51.236;6.794;2023-05-21T21:07:23;20.40;;;13.95;;
17636;SDS011;8937;51.236;6.794;2023-05-21T21:15:46;17.65;;;13.48;;
17636;SDS011;8937;51.236;6.794;2023-05-21T21:24:07;17.45;;;14.13;;
17636;SDS011;8937;51.236;6.794;2023-05-21T21:32:30;16.98;;;12.25;;
17636;SDS011;8937;51.236;6.794;2023-05-21T22:16:43;14.35;;;11.10;;
17636;SDS011;8937;51.236;6.794;2023-05-21T22:34:05;13.15;;;10.60;;
17636;SDS011;8937;51.236;6.794;2023-05-21T22:51:26;14.05;;;10.63;;
17636;SDS011;8937;51.236;6.794;2023-05-21T22:59:53;15.15;;;10.43;;
17636;SDS011;8937;51.236;6.794;2023-05-21T23:26:12;14.48;;;10.02;;
17636;SDS011;8937;51.236;6.794;2023-05-21T23:34:33;11.85;;;9.73;;
17636;SDS011;8937;51.236;6.794;2023-05-21T23:42:56;11.25;;;9.30;;
17636;SDS011;8937;51.236;6.794;2023-05-21T23:51:17;11.90;;;9.50;;
17636;SDS011;8937;51.236;6.794;2023-05-21T23:59:40;9.95;;;8.02;;
